Time;durP1;ratioP1;P1;durP2;ratioP2;P2;SDS_P1;SDS_P2;PMS_P1;PMS_P2;Temp;Humidity;BMP_temperature;BMP_pressure;BME280_temperature;BME280_humidity;BME280_pressure;Samples;Min_cycle;Max_cycle;Signal;HPM_P1;HPM_P2
2021/03/01 00:00:44;;;;;;;288.17;10.05;;;3.50;99.90;;;;;;5108633;28;20039;-84
2021/03/01 00:03:10;;;;;;;231.45;9.07;;;3.50;99.90;;;;;;5091652;28;20085;-84
2021/03/01 00:05:36;;;;;;;143.15;7.90;;;3.50;99.90;;;;;;5060235;28;20052;-84
2021/03/01 00:08:02;;;;;;;253.80;11.95;;;3.50;99.90;;;;;;5055992;28;20097;-84
2021/03/01 00:10:28;;;;;;;280.65;12.43;;;3.60;99.90;;;;;;5086780;28;20043;-84
2021/03/01 00:12:54;;;;;;;229.50;9.02;;;3.50;99.90;;;;;;5079058;28;20046;-84
2021/03/01 00:15:23;;;;;;;122.97;7.38;;;3.60;99.90;;;;;;5099212;28;20044;-84
2021/03/01 00:17:49;;;;;;;149.82;7.82;;;3.70;99.90;;;;;;5108656;28;20127;-83
2021/03/01 00:20:15;;;;;;;327.83;12.25;;;3.60;99.90;;;;;;5065241;28;20126;-83
2021/03/01 00:22:42;;;;;;;212.48;10.18;;;3.60;99.90;;;;;;5092784;28;20044;-85
2021/03/01 00:25:08;;;;;;;205.98;9.80;;;3.60;99.90;;;;;;5073869;28;20510;-88
2021/03/01 00:27:34;;;;;;;255.30;12.07;;;3.60;99.90;;;;;;5092093;28;20071;-84
2021/03/01 00:30:00;;;;;;;214.13;9.70;;;3.50;99.90;;;;;;5086936;28;20040;-84
2021/03/01 00:32:26;;;;;;;246.50;9.68;;;3.50;99.90;;;;;;5064933;28;20385;-84
2021/03/01 00:34:52;;;;;;;287.73;11.63;;;3.50;99.90;;;;;;5076180;28;20479;-84
2021/03/01 00:37:17;;;;;;;201.10;9.57;;;3.50;99.90;;;;;;5089217;28;20084;-84
2021/03/01 00:39:43;;;;;;;176.90;9.90;;;3.50;99.90;;;;;;5067009;28;20047;-85
2021/03/01 00:42:09;;;;;;;180.02;9.43;;;3.50;99.90;;;;;;5063898;28;20386;-89
2021/03/01 00:44:35;;;;;;;199.65;9.73;;;3.40;99.90;;;;;;5054611;28;20135;-83
2021/03/01 00:47:01;;;;;;;187.13;7.97;;;3.50;99.90;;;;;;5075190;28;20391;-84
2021/03/01 00:49:27;;;;;;;183.57;7.65;;;3.50;99.90;;;;;;5106213;28;20126;-83
2021/03/01 00:51:53;;;;;;;232.82;11.05;;;3.50;99.90;;;;;;5078038;28;20092;-83
2021/03/01 00:54:18;;;;;;;206.20;9.82;;;3.40;99.90;;;;;;5091502;28;20066;-83
2021/03/01 00:56:44;;;;;;;206.70;10.07;;;3.50;99.90;;;;;;5092242;28;20043;-85
2021/03/01 00:59:10;;;;;;;192.90;9.48;;;3.50;99.90;;;;;;5088129;28;20040;-88
2021/03/01 01:01:36;;;;;;;193.35;9.68;;;3.50;99.90;;;;;;5083711;28;20039;-83
2021/03/01 01:04:04;;;;;;;239.57;10.85;;;3.50;99.90;;;;;;5110654;28;20036;-84
2021/03/01 01:06:30;;;;;;;154.23;10.15;;;3.50;99.90;;;;;;5074659;28;20062;-84
2021/03/01 01:08:56;;;;;;;188.57;9.55;;;3.50;99.90;;;;;;5075453;28;20035;-83
2021/03/01 01:11:22;;;;;;;142.02;10.55;;;3.50;99.90;;;;;;5069549;28;20047;-83
2021/03/01 01:13:47;;;;;;;320.20;16.70;;;3.40;99.90;;;;;;5083389;28;20047;-86
2021/03/01 01:16:13;;;;;;;153.93;10.32;;;3.40;99.90;;;;;;5058706;28;20044;-88
2021/03/01 01:18:39;;;;;;;202.38;11.80;;;3.30;99.90;;;;;;5071879;28;20411;-83
2021/03/01 01:21:05;;;;;;;241.30;14.98;;;3.30;99.90;;;;;;5090913;28;20044;-85
2021/03/01 01:23:31;;;;;;;124.65;11.00;;;3.30;99.90;;;;;;5091652;28;20114;-84
2021/03/01 01:25:57;;;;;;;141.82;11.32;;;3.30;99.90;;;;;;5079676;28;20119;-83
2021/03/01 01:28:22;;;;;;;306.15;16.58;;;3.30;99.90;;;;;;5073516;28;20097;-83
2021/03/01 01:30:49;;;;;;;360.38;18.30;;;3.30;99.90;;;;;;5091663;28;20504;-83
2021/03/01 01:33:15;;;;;;;227.15;13.63;;;3.30;99.90;;;;;;5089077;28;20031;-89
2021/03/01 01:35:41;;;;;;;116.00;11.15;;;3.30;99.90;;;;;;5075277;28;20108;-84
2021/03/01 01:38:06;;;;;;;197.45;12.77;;;3.30;99.90;;;;;;5091449;28;20130;-83
2021/03/01 01:40:32;;;;;;;189.50;15.07;;;3.30;99.90;;;;;;5073828;28;20067;-84
2021/03/01 01:42:58;;;;;;;98.38;12.25;;;3.30;99.90;;;;;;5084351;28;20043;-83
2021/03/01 01:45:25;;;;;;;74.15;9.95;;;3.30;99.90;;;;;;5090388;28;20395;-83
2021/03/01 01:47:52;;;;;;;58.55;10.70;;;3.30;99.90;;;;;;5110324;28;20063;-83
2021/03/01 01:50:20;;;;;;;46.40;11.20;;;3.20;99.90;;;;;;5110690;28;20498;-90
2021/03/01 01:52:48;;;;;;;47.55;11.65;;;3.30;99.90;;;;;;5113806;28;20032;-84
2021/03/01 01:55:14;;;;;;;25.65;10.80;;;3.30;99.90;;;;;;5099150;28;20126;-83
2021/03/01 01:57:41;;;;;;;29.52;11.18;;;3.30;99.90;;;;;;5112101;28;20039;-83
2021/03/01 02:00:39;;;;;;;27.30;11.05;;;3.30;99.90;;;;;;5094722;28;20441;-84
2021/03/01 02:03:27;;;;;;;46.90;11.65;;;3.30;99.90;;;;;;5112868;28;20443;-83
2021/03/01 02:05:59;;;;;;;51.97;11.70;;;3.20;99.90;;;;;;5095251;28;20126;-84
2021/03/01 02:08:33;;;;;;;69.07;12.65;;;3.30;99.90;;;;;;5113864;28;20036;-83
2021/03/01 02:11:20;;;;;;;70.45;14.23;;;3.30;99.90;;;;;;5095358;28;20039;-84
2021/03/01 02:13:57;;;;;;;130.95;15.52;;;3.20;99.90;;;;;;5100668;28;20043;-83
2021/03/01 02:16:34;;;;;;;94.13;14.00;;;3.20;99.90;;;;;;5099172;28;20036;-83
2021/03/01 02:19:00;;;;;;;138.60;14.40;;;3.20;99.90;;;;;;5084243;28;20060;-84
2021/03/01 02:21:27;;;;;;;132.30;15.20;;;3.30;99.90;;;;;;5060845;28;20128;-85
2021/03/01 02:23:53;;;;;;;150.73;16.05;;;3.30;99.90;;;;;;5113187;28;20040;-83
2021/03/01 02:26:39;;;;;;;182.93;17.88;;;3.30;99.90;;;;;;5094620;28;20042;-87
2021/03/01 02:29:12;;;;;;;194.40;18.15;;;3.30;99.90;;;;;;5095149;28;20035;-83
2021/03/01 02:31:43;;;;;;;105.03;14.82;;;3.30;99.90;;;;;;5081930;28;20441;-84
2021/03/01 02:34:11;;;;;;;108.75;14.07;;;3.30;99.90;;;;;;5113263;28;20043;-83
2021/03/01 02:37:06;;;;;;;111.13;16.10;;;3.30;99.90;;;;;;5073951;28;20036;-83
2021/03/01 02:39:36;;;;;;;213.13;17.27;;;3.30;99.90;;;;;;5107384;28;20107;-83
2021/03/01 02:42:04;;;;;;;75.07;13.93;;;3.20;99.90;;;;;;5094833;28;20035;-83
2021/03/01 02:44:30;;;;;;;167.32;17.70;;;3.30;99.90;;;;;;5072892;28;20449;-84
2021/03/01 02:46:58;;;;;;;197.85;17.48;;;3.40;99.90;;;;;;5094034;28;20044;-83
2021/03/01 02:49:25;;;;;;;173.95;17.40;;;3.30;99.90;;;;;;5111801;28;20051;-86
2021/03/01 02:51:52;;;;;;;279.08;20.13;;;3.30;99.90;;;;;;5112304;28;20051;-83
2021/03/01 02:54:21;;;;;;;257.45;17.77;;;3.20;99.90;;;;;;5112555;28;20205;-85
2021/03/01 02:56:48;;;;;;;359.63;20.48;;;3.20;99.90;;;;;;5111399;28;20039;-85
2021/03/01 02:59:15;;;;;;;258.48;18.05;;;3.20;99.90;;;;;;5112225;28;20058;-83
2021/03/01 03:01:42;;;;;;;82.45;14.02;;;3.20;99.90;;;;;;5110187;28;20127;-82
2021/03/01 03:04:09;;;;;;;266.05;20.73;;;3.20;99.90;;;;;;5112196;28;20067;-82
2021/03/01 03:06:38;;;;;;;191.93;17.33;;;3.10;99.90;;;;;;5092256;28;20442;-87
2021/03/01 03:09:08;;;;;;;630.97;27.52;;;3.20;99.90;;;;;;5098067;28;20055;-83
2021/03/01 03:11:36;;;;;;;256.10;17.92;;;3.10;99.90;;;;;;5093528;28;20052;-83
2021/03/01 03:14:05;;;;;;;354.75;18.77;;;3.00;99.90;;;;;;5094471;28;20074;-84
2021/03/01 03:16:33;;;;;;;502.65;24.60;;;3.00;99.90;;;;;;5109389;28;20039;-84
2021/03/01 03:19:00;;;;;;;308.88;18.75;;;3.00;99.90;;;;;;5093046;28;20096;-84
2021/03/01 03:21:26;;;;;;;375.08;20.95;;;3.00;99.90;;;;;;5076761;28;20126;-88
2021/03/01 03:23:54;;;;;;;452.70;19.08;;;3.00;99.90;;;;;;5094215;28;20055;-83
2021/03/01 03:26:21;;;;;;;244.80;17.55;;;3.00;99.90;;;;;;5111986;28;20044;-84
2021/03/01 03:28:47;;;;;;;422.88;20.27;;;3.00;99.90;;;;;;5093311;28;20040;-83
2021/03/01 03:31:13;;;;;;;495.80;19.65;;;3.00;99.90;;;;;;5111192;28;20054;-82
2021/03/01 03:33:40;;;;;;;432.70;21.88;;;2.90;99.90;;;;;;5093141;28;20039;-83
2021/03/01 03:36:07;;;;;;;210.35;16.60;;;2.90;99.90;;;;;;5112088;28;20055;-83
2021/03/01 03:38:43;;;;;;;281.83;17.05;;;2.90;99.90;;;;;;5103362;28;20036;-82
2021/03/01 03:41:12;;;;;;;284.80;17.73;;;2.90;99.90;;;;;;5088086;28;20044;-83
2021/03/01 03:43:40;;;;;;;213.60;17.30;;;3.00;99.90;;;;;;5092555;28;20039;-84
2021/03/01 03:46:08;;;;;;;210.45;15.23;;;2.90;99.90;;;;;;5093165;28;20051;-83
2021/03/01 03:48:35;;;;;;;84.53;15.10;;;2.90;99.90;;;;;;5092622;28;20046;-86
2021/03/01 03:51:05;;;;;;;39.63;15.38;;;2.90;99.90;;;;;;5073526;28;20036;-83
2021/03/01 03:53:37;;;;;;;25.88;12.90;;;3.00;99.90;;;;;;5091170;28;20040;-82
2021/03/01 03:56:03;;;;;;;42.00;14.98;;;3.00;99.90;;;;;;5092550;28;20043;-83
2021/03/01 03:58:32;;;;;;;36.30;14.45;;;3.10;99.90;;;;;;5110698;28;20039;-87
2021/03/01 04:01:00;;;;;;;44.03;16.55;;;3.10;99.90;;;;;;5091004;28;20051;-83
2021/03/01 04:03:28;;;;;;;44.38;16.13;;;3.20;99.90;;;;;;5106754;28;20043;-86
2021/03/01 04:05:56;;;;;;;42.00;15.77;;;3.20;99.90;;;;;;5110654;28;20445;-83
2021/03/01 04:08:24;;;;;;;56.47;16.83;;;3.30;99.90;;;;;;5077767;28;20488;-82
2021/03/01 04:10:52;;;;;;;47.88;16.00;;;3.30;99.90;;;;;;5091503;28;20048;-84
2021/03/01 04:13:19;;;;;;;46.45;15.55;;;3.30;99.90;;;;;;5092700;28;20119;-82
2021/03/01 04:15:47;;;;;;;48.60;16.25;;;3.30;99.90;;;;;;5074959;28;20070;-82
2021/03/01 04:18:22;;;;;;;80.70;18.10;;;3.30;99.90;;;;;;5110501;28;20054;-82
2021/03/01 04:20:50;;;;;;;43.08;15.20;;;3.40;99.90;;;;;;5108783;28;20239;-82
2021/03/01 04:23:18;;;;;;;51.85;15.75;;;3.40;99.90;;;;;;5092456;28;20067;-82
2021/03/01 04:25:46;;;;;;;112.57;21.77;;;3.40;99.90;;;;;;5109579;28;20043;-82
2021/03/01 04:28:13;;;;;;;128.63;19.35;;;3.50;99.90;;;;;;5088790;28;20044;-82
2021/03/01 04:30:40;;;;;;;119.90;18.63;;;3.50;99.90;;;;;;5083643;28;20122;-83
2021/03/01 04:33:07;;;;;;;130.80;19.15;;;3.50;99.90;;;;;;5070061;28;20047;-82
2021/03/01 04:35:34;;;;;;;203.95;22.38;;;3.50;99.90;;;;;;5082140;28;20040;-85
2021/03/01 04:38:00;;;;;;;267.48;24.27;;;3.60;99.90;;;;;;5091942;28;20063;-83
2021/03/01 04:40:26;;;;;;;166.93;18.75;;;3.60;99.90;;;;;;5092649;28;20043;-84
2021/03/01 04:42:53;;;;;;;156.32;17.80;;;3.50;99.90;;;;;;5091955;28;20628;-82
2021/03/01 04:45:19;;;;;;;181.32;19.05;;;3.50;99.90;;;;;;5092549;28;20065;-83
2021/03/01 04:47:49;;;;;;;196.52;21.20;;;3.50;99.90;;;;;;5091591;28;20756;-83
2021/03/01 04:50:16;;;;;;;165.88;18.98;;;3.60;99.90;;;;;;5110323;28;20031;-84
2021/03/01 04:52:43;;;;;;;223.40;20.65;;;3.60;99.90;;;;;;5071224;28;20123;-84
2021/03/01 04:55:10;;;;;;;272.20;21.27;;;3.60;99.90;;;;;;5070033;28;20044;-83
2021/03/01 04:57:37;;;;;;;232.55;15.48;;;3.60;99.90;;;;;;5089546;28;20028;-87
2021/03/01 05:00:10;;;;;;;261.55;17.08;;;3.60;99.90;;;;;;5086402;28;20043;-84
2021/03/01 05:02:40;;;;;;;391.13;24.60;;;3.50;99.90;;;;;;5105185;28;20084;-89
2021/03/01 05:05:07;;;;;;;171.85;14.65;;;3.50;99.90;;;;;;5073020;28;20472;-84
2021/03/01 05:07:35;;;;;;;222.23;15.43;;;3.50;99.90;;;;;;5072198;28;20059;-87
2021/03/01 05:10:04;;;;;;;187.05;14.68;;;3.50;99.90;;;;;;5102565;28;20847;-84
2021/03/01 05:12:29;;;;;;;215.50;15.95;;;3.50;99.90;;;;;;5109900;28;20047;-84
2021/03/01 05:14:55;;;;;;;200.55;17.15;;;3.40;99.90;;;;;;5091069;28;20092;-83
2021/03/01 05:17:21;;;;;;;314.15;20.98;;;3.40;99.90;;;;;;5091806;28;20406;-83
2021/03/01 05:19:47;;;;;;;281.83;18.77;;;3.40;99.90;;;;;;5090715;28;20032;-83
2021/03/01 05:22:12;;;;;;;331.40;22.38;;;3.40;99.90;;;;;;5070987;28;20068;-83
2021/03/01 05:24:38;;;;;;;219.30;18.92;;;3.40;99.90;;;;;;5087030;28;20127;-87
2021/03/01 05:27:04;;;;;;;183.50;18.80;;;3.40;99.90;;;;;;5088382;28;20104;-83
2021/03/01 05:29:30;;;;;;;213.27;19.83;;;3.50;99.90;;;;;;5092129;28;20520;-83
2021/03/01 05:31:56;;;;;;;224.18;19.40;;;3.50;99.90;;;;;;5089626;28;20509;-83
2021/03/01 05:34:22;;;;;;;185.93;15.82;;;3.50;99.90;;;;;;5091314;28;20066;-84
2021/03/01 05:36:47;;;;;;;181.77;16.80;;;3.50;99.90;;;;;;5109064;28;20039;-83
2021/03/01 05:39:13;;;;;;;140.73;17.00;;;3.50;99.90;;;;;;5092264;28;20109;-84
2021/03/01 05:41:41;;;;;;;247.02;19.83;;;3.60;99.90;;;;;;5085466;28;20119;-89
2021/03/01 05:44:08;;;;;;;224.10;20.33;;;3.60;99.90;;;;;;5100938;28;20122;-83
2021/03/01 05:46:35;;;;;;;318.23;22.27;;;3.60;99.90;;;;;;5090918;28;20039;-84
2021/03/01 05:49:03;;;;;;;253.25;21.45;;;3.60;99.90;;;;;;5108922;28;20142;-83
2021/03/01 05:51:30;;;;;;;301.92;22.02;;;3.60;99.90;;;;;;5109251;28;20126;-83
2021/03/01 05:54:00;;;;;;;111.82;17.13;;;3.70;99.90;;;;;;5073769;28;20052;-83
2021/03/01 05:56:26;;;;;;;130.50;18.63;;;3.70;99.90;;;;;;5109157;28;20494;-84
2021/03/01 05:58:52;;;;;;;182.65;21.60;;;3.80;99.90;;;;;;5091216;28;20044;-84
2021/03/01 06:01:19;;;;;;;100.68;17.45;;;3.70;99.90;;;;;;5102735;28;20079;-84
2021/03/01 06:03:45;;;;;;;125.28;18.88;;;3.70;99.90;;;;;;5090531;28;20038;-84
2021/03/01 06:06:12;;;;;;;138.05;19.63;;;3.70;99.90;;;;;;5092029;28;20077;-83
2021/03/01 06:08:39;;;;;;;115.07;18.63;;;3.80;99.90;;;;;;5075429;28;20046;-84
2021/03/01 06:11:07;;;;;;;139.13;16.45;;;3.70;99.90;;;;;;5091543;28;20052;-88
2021/03/01 06:13:37;;;;;;;88.53;14.73;;;3.70;99.90;;;;;;5089847;28;20040;-83
2021/03/01 06:16:04;;;;;;;64.50;15.00;;;3.60;99.90;;;;;;5089009;28;20036;-83
2021/03/01 06:18:30;;;;;;;93.25;14.27;;;3.60;99.90;;;;;;5070910;28;20055;-85
2021/03/01 06:21:17;;;;;;;125.15;14.68;;;3.60;99.90;;;;;;5104971;28;20039;-83
2021/03/01 06:23:45;;;;;;;89.18;13.73;;;3.50;99.90;;;;;;5104135;28;20031;-88
2021/03/01 06:26:21;;;;;;;192.65;17.45;;;3.40;99.90;;;;;;5088487;28;20047;-84
2021/03/01 06:28:49;;;;;;;188.88;15.63;;;3.40;99.90;;;;;;5090201;28;20043;-83
2021/03/01 06:31:53;;;;;;;210.38;18.35;;;3.40;99.90;;;;;;5107015;28;20071;-85
2021/03/01 06:34:33;;;;;;;230.95;15.27;;;3.30;99.90;;;;;;5102626;28;20054;-83
2021/03/01 06:37:12;;;;;;;163.13;14.57;;;3.30;99.90;;;;;;5104469;28;20051;-84
2021/03/01 06:39:50;;;;;;;139.13;12.77;;;3.30;99.90;;;;;;5105200;28;20039;-85
2021/03/01 06:42:16;;;;;;;123.20;11.18;;;3.30;99.90;;;;;;5094765;28;20031;-84
2021/03/01 06:44:57;;;;;;;153.27;10.90;;;3.30;99.90;;;;;;5092471;28;20044;-83
2021/03/01 06:47:41;;;;;;;124.25;10.55;;;3.20;99.90;;;;;;5081572;28;20489;-83
2021/03/01 06:50:19;;;;;;;75.05;8.65;;;3.20;99.90;;;;;;5110049;28;20470;-83
2021/03/01 06:52:45;;;;;;;143.85;12.40;;;3.20;99.90;;;;;;5105762;28;20040;-89
2021/03/01 06:55:12;;;;;;;126.78;8.82;;;3.20;99.90;;;;;;5077447;28;20032;-84
2021/03/01 06:57:38;;;;;;;91.35;8.00;;;3.30;99.90;;;;;;5104201;28;20047;-85
2021/03/01 07:00:06;;;;;;;92.72;8.07;;;3.30;99.90;;;;;;5101958;28;20036;-84
2021/03/01 07:02:41;;;;;;;134.15;8.45;;;3.30;99.90;;;;;;5107242;28;20042;-83
2021/03/01 07:05:08;;;;;;;153.60;11.18;;;3.30;99.90;;;;;;5091219;28;20039;-83
2021/03/01 07:07:35;;;;;;;85.18;8.55;;;3.30;99.90;;;;;;5081600;28;20079;-85
2021/03/01 07:10:09;;;;;;;174.77;11.70;;;3.40;99.90;;;;;;5111274;28;20044;-83
2021/03/01 07:12:43;;;;;;;163.73;10.77;;;3.40;99.90;;;;;;5112213;28;20468;-83
2021/03/01 07:15:11;;;;;;;336.13;14.20;;;3.30;99.90;;;;;;5084829;28;20044;-83
2021/03/01 07:17:39;;;;;;;86.63;8.75;;;3.40;99.90;;;;;;5108726;28;20073;-83
2021/03/01 07:20:07;;;;;;;276.25;10.40;;;3.40;99.90;;;;;;5093282;28;20047;-83
2021/03/01 07:22:37;;;;;;;130.68;9.00;;;3.40;99.90;;;;;;5093607;28;20479;-83
2021/03/01 07:25:03;;;;;;;309.43;13.07;;;3.40;99.90;;;;;;5105593;28;20044;-83
2021/03/01 07:27:29;;;;;;;435.88;12.85;;;3.40;99.90;;;;;;5086799;28;20376;-84
2021/03/01 07:29:57;;;;;;;453.38;14.32;;;3.40;99.90;;;;;;5093098;28;20047;-83
2021/03/01 07:32:27;;;;;;;321.17;10.90;;;3.40;99.90;;;;;;5110791;28;20407;-84
2021/03/01 07:34:53;;;;;;;404.95;12.85;;;3.40;99.90;;;;;;5110619;28;20047;-83
2021/03/01 07:37:19;;;;;;;488.98;13.48;;;3.40;99.90;;;;;;5093971;28;20069;-84
2021/03/01 07:39:45;;;;;;;549.97;14.70;;;3.50;99.90;;;;;;5094138;28;20039;-84
2021/03/01 07:42:12;;;;;;;448.67;11.45;;;3.50;99.90;;;;;;5111571;28;20039;-84
2021/03/01 07:44:39;;;;;;;415.80;12.60;;;3.50;99.90;;;;;;5097939;28;20094;-84
2021/03/01 07:47:07;;;;;;;623.67;17.50;;;3.50;99.90;;;;;;5093068;28;20039;-84
2021/03/01 07:49:43;;;;;;;479.13;14.98;;;3.40;99.90;;;;;;5063105;28;20042;-83
2021/03/01 07:52:18;;;;;;;347.75;10.85;;;3.40;99.90;;;;;;5080274;28;20044;-84
2021/03/01 07:54:55;;;;;;;354.10;13.40;;;3.50;99.90;;;;;;5093798;28;20047;-83
2021/03/01 07:57:23;;;;;;;378.50;11.82;;;3.50;99.90;;;;;;5111949;28;20048;-84
2021/03/01 07:59:49;;;;;;;249.68;9.68;;;3.60;99.90;;;;;;5072412;28;20138;-87
2021/03/01 08:02:22;;;;;;;364.75;13.07;;;3.60;99.90;;;;;;5078600;28;20036;-84
2021/03/01 08:04:50;;;;;;;440.20;14.15;;;3.60;99.90;;;;;;5093820;28;20068;-84
2021/03/01 08:07:16;;;;;;;369.08;12.15;;;3.60;99.90;;;;;;5109499;28;20051;-83
2021/03/01 08:09:53;;;;;;;249.82;10.65;;;3.70;99.90;;;;;;5110821;28;20127;-85
2021/03/01 08:12:27;;;;;;;301.88;9.68;;;3.80;99.90;;;;;;5099642;28;20047;-83
2021/03/01 08:14:55;;;;;;;320.75;10.65;;;3.80;99.90;;;;;;5103099;28;20036;-89
2021/03/01 08:17:30;;;;;;;296.50;9.35;;;3.90;99.90;;;;;;5108761;28;20558;-83
2021/03/01 08:19:57;;;;;;;407.83;9.85;;;3.90;99.90;;;;;;5072807;28;20040;-88
2021/03/01 08:22:25;;;;;;;189.60;5.50;;;3.70;99.90;;;;;;5066786;28;20060;-84
2021/03/01 08:24:55;;;;;;;183.85;5.53;;;3.80;99.90;;;;;;5110495;28;20043;-84
2021/03/01 08:27:26;;;;;;;193.80;4.35;;;3.70;99.90;;;;;;5105780;28;20042;-83
2021/03/01 08:30:25;;;;;;;116.55;3.20;;;3.70;99.90;;;;;;5089906;28;20063;-87
2021/03/01 08:33:09;;;;;;;107.15;3.17;;;3.70;99.90;;;;;;5088540;28;20040;-83
2021/03/01 08:35:40;;;;;;;87.93;2.78;;;3.70;99.90;;;;;;5096301;28;20115;-83
2021/03/01 08:38:07;;;;;;;84.43;2.63;;;3.80;99.90;;;;;;5105677;28;20039;-83
2021/03/01 08:40:34;;;;;;;86.35;2.75;;;3.90;99.90;;;;;;5085646;28;20043;-83
2021/03/01 08:43:02;;;;;;;90.82;2.58;;;3.90;99.90;;;;;;5105925;28;20043;-83
2021/03/01 08:45:35;;;;;;;102.30;2.45;;;4.00;99.90;;;;;;5086583;28;20130;-83
2021/03/01 08:48:04;;;;;;;111.10;3.13;;;4.00;99.90;;;;;;5089550;28;20044;-84
2021/03/01 08:50:38;;;;;;;91.50;3.25;;;4.00;99.90;;;;;;5098392;28;20429;-83
2021/03/01 08:53:04;;;;;;;78.25;2.75;;;4.00;99.90;;;;;;5095299;28;20051;-83
2021/03/01 08:55:32;;;;;;;49.10;2.20;;;4.10;99.90;;;;;;5090486;28;20035;-83
2021/03/01 08:58:13;;;;;;;42.20;1.98;;;4.20;99.90;;;;;;5092330;28;20051;-89
2021/03/01 09:01:03;;;;;;;64.72;2.42;;;4.20;99.90;;;;;;5102881;28;20036;-83
2021/03/01 09:03:29;;;;;;;;;;;4.20;99.90;;;;;;5104891;28;20079;-86
2021/03/01 09:06:10;;;;;;;49.47;2.00;;;4.30;99.90;;;;;;5072611;28;19955;-83
2021/03/01 09:08:43;;;;;;;147.60;3.28;;;4.20;99.90;;;;;;5090710;28;20093;-83
2021/03/01 09:11:17;;;;;;;107.28;2.78;;;4.20;99.90;;;;;;5109795;28;20040;-87
2021/03/01 09:13:49;;;;;;;144.05;3.83;;;4.20;99.90;;;;;;5110821;28;20146;-83
2021/03/01 09:16:24;;;;;;;95.47;3.33;;;4.20;99.90;;;;;;5106124;28;20042;-83
2021/03/01 09:19:07;;;;;;;101.50;3.83;;;4.20;99.90;;;;;;5108529;28;20044;-83
2021/03/01 09:21:37;;;;;;;92.30;3.40;;;4.30;99.90;;;;;;5077159;28;20122;-84
2021/03/01 09:24:04;;;;;;;41.17;2.63;;;4.50;99.90;;;;;;5089633;28;20047;-83
2021/03/01 09:26:34;;;;;;;129.07;3.95;;;4.50;99.90;;;;;;5091056;28;20047;-84
2021/03/01 09:29:06;;;;;;;57.67;3.37;;;4.60;99.90;;;;;;5108205;28;20120;-89
2021/03/01 09:31:51;;;;;;;119.72;3.13;;;4.70;99.90;;;;;;5074389;28;20359;-83
2021/03/01 09:34:18;;;;;;;160.02;3.70;;;4.70;99.90;;;;;;5071516;28;20043;-84
2021/03/01 09:36:49;;;;;;;114.63;3.67;;;4.70;99.90;;;;;;5104374;28;20039;-85
2021/03/01 09:39:27;;;;;;;91.43;3.58;;;4.60;99.90;;;;;;5073716;28;20043;-83
2021/03/01 09:41:54;;;;;;;117.13;3.92;;;4.80;99.90;;;;;;5102930;28;20131;-83
2021/03/01 09:44:29;;;;;;;74.47;3.08;;;4.80;99.90;;;;;;5105857;28;20070;-84
2021/03/01 09:46:57;;;;;;;65.85;3.70;;;5.00;99.90;;;;;;5105498;28;20040;-83
2021/03/01 09:49:23;;;;;;;117.20;4.10;;;5.00;99.90;;;;;;5090189;28;20119;-84
2021/03/01 09:51:50;;;;;;;64.30;3.08;;;5.00;99.90;;;;;;5103546;28;20040;-84
2021/03/01 09:54:17;;;;;;;105.07;3.90;;;5.00;99.90;;;;;;5074313;28;20040;-83
2021/03/01 09:56:50;;;;;;;70.30;3.60;;;5.00;99.90;;;;;;5078108;28;20138;-83
2021/03/01 09:59:35;;;;;;;54.50;3.05;;;5.10;99.90;;;;;;5110296;28;20047;-83
2021/03/01 10:02:17;;;;;;;74.80;2.97;;;5.10;99.90;;;;;;5096014;28;20047;-86
2021/03/01 10:04:43;;;;;;;52.90;3.00;;;5.30;99.90;;;;;;5074999;28;20043;-84
2021/03/01 10:07:24;;;;;;;29.48;2.65;;;5.30;99.90;;;;;;5089595;28;20052;-85
2021/03/01 10:09:51;;;;;;;23.77;2.40;;;5.50;99.90;;;;;;5081013;28;20044;-85
2021/03/01 10:12:18;;;;;;;32.30;2.55;;;5.50;99.90;;;;;;5095100;28;20039;-84
2021/03/01 10:14:45;;;;;;;37.42;2.50;;;5.60;99.90;;;;;;5114612;28;20406;-84
2021/03/01 10:17:23;;;;;;;33.50;3.05;;;5.70;99.90;;;;;;5078924;28;20390;-85
2021/03/01 10:19:50;;;;;;;33.47;2.85;;;5.80;99.90;;;;;;5099743;28;20549;-84
2021/03/01 10:22:15;;;;;;;38.72;2.70;;;5.80;99.90;;;;;;5075314;28;20043;-84
2021/03/01 10:24:42;;;;;;;33.50;2.90;;;5.80;99.90;;;;;;5094935;28;20039;-84
2021/03/01 10:27:09;;;;;;;28.85;2.88;;;5.90;99.90;;;;;;5084216;28;20072;-87
2021/03/01 10:29:49;;;;;;;19.67;3.03;;;5.90;99.90;;;;;;5093119;28;20047;-84
2021/03/01 10:32:34;;;;;;;57.08;3.70;;;5.90;99.90;;;;;;5078352;28;20056;-84
2021/03/01 10:34:59;;;;;;;38.72;3.60;;;6.00;99.90;;;;;;5114011;28;20526;-85
2021/03/01 10:37:26;;;;;;;29.52;3.28;;;6.00;99.90;;;;;;5095033;28;20173;-84
2021/03/01 10:39:54;;;;;;;33.83;3.40;;;6.10;99.90;;;;;;5114216;28;20043;-85
2021/03/01 10:42:22;;;;;;;25.13;2.92;;;6.10;99.90;;;;;;5089664;28;20406;-84
2021/03/01 10:45:01;;;;;;;24.85;3.05;;;6.10;99.90;;;;;;5113794;28;20051;-84
2021/03/01 10:47:29;;;;;;;20.98;2.85;;;6.20;99.90;;;;;;5086366;28;20586;-84
2021/03/01 10:50:00;;;;;;;4.05;2.90;;;6.20;99.90;;;;;;5090234;28;20050;-85
2021/03/01 10:52:27;;;;;;;6.85;3.15;;;6.30;99.90;;;;;;5108633;28;20032;-86
2021/03/01 10:54:54;;;;;;;28.73;4.07;;;6.50;99.90;;;;;;5089189;28;20047;-84
2021/03/01 10:57:22;;;;;;;37.40;2.97;;;6.60;99.90;;;;;;5112044;28;20089;-85
2021/03/01 10:59:51;;;;;;;33.03;3.30;;;6.60;99.90;;;;;;5113362;28;20404;-85
2021/03/01 11:02:18;;;;;;;21.40;3.45;;;6.60;99.90;;;;;;5085957;28;20068;-84
2021/03/01 11:04:45;;;;;;;16.90;2.85;;;6.70;99.90;;;;;;5089590;28;20039;-85
2021/03/01 11:07:11;;;;;;;8.77;3.60;;;6.90;99.90;;;;;;5107491;28;20441;-88
2021/03/01 11:09:37;;;;;;;28.83;3.72;;;7.00;99.90;;;;;;5085893;28;20063;-84
2021/03/01 11:12:04;;;;;;;7.40;3.42;;;7.00;99.90;;;;;;5095283;28;20074;-85
2021/03/01 11:14:31;;;;;;;13.15;4.32;;;6.80;99.90;;;;;;5094865;28;20044;-85
2021/03/01 11:16:58;;;;;;;13.70;4.45;;;6.90;99.90;;;;;;5085597;28;20047;-86
2021/03/01 11:19:23;;;;;;;10.80;5.20;;;6.90;99.90;;;;;;5089579;28;20046;-85
2021/03/01 11:21:50;;;;;;;7.63;4.88;;;6.90;99.90;;;;;;5085143;28;20036;-87
2021/03/01 11:24:20;;;;;;;7.57;5.28;;;6.90;99.90;;;;;;5103922;28;20079;-86
2021/03/01 11:26:46;;;;;;;8.98;4.88;;;6.90;99.90;;;;;;5073565;28;20036;-85
2021/03/01 11:29:12;;;;;;;10.82;5.35;;;6.90;99.90;;;;;;5106959;28;20103;-89
2021/03/01 11:31:37;;;;;;;10.90;6.03;;;6.80;99.90;;;;;;5084109;28;20798;-85
2021/03/01 11:34:07;;;;;;;10.52;6.32;;;6.90;99.90;;;;;;5097971;28;20116;-85
2021/03/01 11:36:33;;;;;;;10.10;6.28;;;7.00;99.90;;;;;;5106079;28;20206;-85
2021/03/01 11:38:59;;;;;;;12.95;6.32;;;7.10;99.90;;;;;;5073568;28;20463;-89
2021/03/01 11:41:28;;;;;;;14.70;7.05;;;7.00;99.90;;;;;;5073795;28;20075;-86
2021/03/01 11:43:54;;;;;;;10.20;6.47;;;7.20;99.90;;;;;;5077706;28;20036;-85
2021/03/01 11:46:20;;;;;;;10.13;6.28;;;7.30;99.90;;;;;;5072939;28;20123;-84
2021/03/01 11:48:47;;;;;;;9.23;5.72;;;7.40;99.90;;;;;;5075682;28;20408;-85
2021/03/01 11:51:14;;;;;;;13.88;7.18;;;7.40;99.90;;;;;;5091626;28;20039;-88
2021/03/01 11:53:41;;;;;;;9.82;6.45;;;7.50;99.90;;;;;;5062941;28;20028;-85
2021/03/01 11:56:07;;;;;;;12.77;7.13;;;7.80;99.90;;;;;;5074569;28;20043;-84
2021/03/01 11:58:34;;;;;;;13.38;7.70;;;7.80;99.90;;;;;;5090899;28;20070;-84
2021/03/01 12:01:00;;;;;;;11.32;6.88;;;7.80;99.90;;;;;;5108160;28;20497;-85
2021/03/01 12:03:26;;;;;;;11.40;6.63;;;7.70;99.90;;;;;;5103905;28;20122;-86
2021/03/01 12:05:51;;;;;;;11.82;7.03;;;7.90;99.90;;;;;;5084852;28;20046;-84
2021/03/01 12:08:17;;;;;;;11.63;7.25;;;7.80;99.90;;;;;;5074362;28;20113;-89
2021/03/01 12:10:43;;;;;;;10.20;6.32;;;8.00;99.90;;;;;;5070560;28;20490;-85
2021/03/01 12:13:09;;;;;;;9.27;6.05;;;7.80;99.90;;;;;;5088646;28;20044;-85
2021/03/01 12:15:35;;;;;;;12.23;7.13;;;7.80;99.90;;;;;;5079497;28;20060;-87
2021/03/01 12:18:01;;;;;;;8.52;6.22;;;7.80;99.90;;;;;;5072410;28;20062;-84
2021/03/01 12:20:27;;;;;;;10.90;6.00;;;8.00;99.90;;;;;;5089744;28;20048;-85
2021/03/01 12:22:53;;;;;;;8.40;5.68;;;8.10;99.90;;;;;;5074721;28;20040;-84
2021/03/01 12:25:19;;;;;;;7.57;5.60;;;8.00;99.90;;;;;;5071952;28;20071;-87
2021/03/01 12:27:44;;;;;;;8.85;5.53;;;8.00;99.90;;;;;;5085982;28;20046;-85
2021/03/01 12:30:11;;;;;;;6.68;4.70;;;8.10;99.90;;;;;;5072944;28;20138;-85
2021/03/01 12:32:37;;;;;;;3.70;3.40;;;8.10;99.90;;;;;;5085831;28;20127;-85
2021/03/01 12:35:04;;;;;;;7.03;4.28;;;8.20;99.90;;;;;;5078317;28;20114;-85
2021/03/01 12:37:30;;;;;;;4.68;3.20;;;8.20;99.90;;;;;;5058731;28;20040;-84
2021/03/01 12:39:55;;;;;;;5.00;3.28;;;8.20;99.90;;;;;;5066794;28;20040;-84
2021/03/01 12:42:22;;;;;;;7.53;3.28;;;8.20;99.90;;;;;;5054495;28;20106;-87
2021/03/01 12:44:48;;;;;;;4.30;3.58;;;8.30;99.90;;;;;;5075414;28;20115;-84